createdAt,value
2019-02-24T00:02:41.774Z,100772.28
2019-02-24T00:03:19.438Z,100775.22
2019-02-24T00:04:20.361Z,100777.36
2019-02-24T00:05:24.851Z,100783.27
2019-02-24T00:06:48.460Z,100779.52
2019-02-24T00:08:09.000Z,100779.72
2019-02-24T00:09:51.448Z,100778.25
2019-02-24T00:10:35.306Z,100782.42
2019-02-24T00:11:16.686Z,100782.55
2019-02-24T00:12:46.014Z,100783.53
2019-02-24T00:13:22.227Z,100787.48
2019-02-24T00:13:58.421Z,100774.95
2019-02-24T00:14:34.466Z,100783.02
2019-02-24T00:15:10.717Z,100787.89
2019-02-24T00:15:46.919Z,100788.20
2019-02-24T00:16:23.414Z,100787.42
2019-02-24T00:16:59.782Z,100786.91
2019-02-24T00:17:39.144Z,100788.52
2019-02-24T00:19:03.944Z,100795.77
2019-02-24T00:20:21.179Z,100792.25
2019-02-24T00:22:58.670Z,100797.09
2019-02-24T00:23:38.732Z,100801.69
2019-02-24T00:24:18.526Z,100801.69
2019-02-24T00:27:57.750Z,100800.59
2019-02-24T00:28:58.767Z,100800.85
2019-02-24T00:34:28.856Z,100809.44
2019-02-24T00:35:16.724Z,100804.02
2019-02-24T00:35:53.559Z,100811.25
2019-02-24T00:38:58.411Z,100804.71
2019-02-24T00:42:06.986Z,100808.84
2019-02-24T00:45:21.223Z,100810.61
2019-02-24T00:46:10.792Z,100819.73
2019-02-24T00:48:53.626Z,100824.55
2019-02-24T00:53:29.463Z,100825.83
2019-02-24T00:54:16.590Z,100830.94
2019-02-24T00:55:30.701Z,100834.48
2019-02-24T00:59:40.011Z,100833.64
2019-02-24T01:01:31.346Z,100829.59
2019-02-24T01:02:09.209Z,100834.48
2019-02-24T01:03:16.882Z,100828.20
2019-02-24T01:08:24.693Z,100838.61
2019-02-24T01:09:48.967Z,100840.95
2019-02-24T01:11:04.538Z,100843.84
2019-02-24T01:12:06.306Z,100846.98
2019-02-24T01:16:17.854Z,100848.13
2019-02-24T01:17:17.450Z,100851.86
2019-02-24T01:18:12.379Z,100853.97
2019-02-24T01:19:17.175Z,100857.43
2019-02-24T01:20:21.734Z,100857.67
2019-02-24T01:22:08.711Z,100859.50
2019-02-24T01:24:46.991Z,100866.47
2019-02-24T01:26:08.266Z,100858.31
2019-02-24T01:27:38.648Z,100858.31
2019-02-24T01:28:49.910Z,100857.84
2019-02-24T01:32:20.439Z,100865.87
2019-02-24T01:33:24.002Z,100865.81
2019-02-24T01:34:44.122Z,100868.33
2019-02-24T01:36:04.450Z,100868.33
2019-02-24T01:36:58.036Z,100870.82
2019-02-24T01:38:00.637Z,100870.82
2019-02-24T01:39:04.405Z,100863.58
2019-02-24T01:40:23.894Z,100856.23
2019-02-24T01:41:43.583Z,100871.29
2019-02-24T01:42:23.979Z,100871.29
2019-02-24T01:43:24.943Z,100857.88
2019-02-24T01:45:05.373Z,100871.41
2019-02-24T01:46:05.899Z,100871.41
2019-02-24T01:48:24.232Z,100867.83
2019-02-24T01:49:09.041Z,100870.61
2019-02-24T01:51:12.767Z,100872.87
2019-02-24T01:54:49.046Z,100867.63
2019-02-24T02:02:39.459Z,100876.06
2019-02-24T02:06:40.342Z,100873.18
2019-02-24T02:11:43.804Z,100868.44
2019-02-24T02:14:14.055Z,100871.27
2019-02-24T02:15:40.759Z,100869.12
2019-02-24T02:17:10.985Z,100871.94
2019-02-24T02:18:21.364Z,100869.34
2019-02-24T02:20:20.307Z,100872.39
2019-02-24T02:23:43.879Z,100877.52
2019-02-24T02:25:10.834Z,100874.36
2019-02-24T02:25:54.627Z,100873.27
2019-02-24T02:26:41.440Z,100882.31
2019-02-24T02:27:24.341Z,100877.46
2019-02-24T02:28:08.115Z,100877.37
2019-02-24T02:29:31.772Z,100876.90
2019-02-24T02:30:28.030Z,100878.74
2019-02-24T02:31:08.746Z,100876.73
2019-02-24T02:34:50.558Z,100881.78
2019-02-24T02:35:34.463Z,100879.46
2019-02-24T02:36:12.342Z,100882.82
2019-02-24T02:36:49.889Z,100876.50
2019-02-24T02:37:29.670Z,100875.86
2019-02-24T02:38:06.971Z,100882.81
2019-02-24T02:38:44.340Z,100873.86
2019-02-24T02:39:38.370Z,100881.37
2019-02-24T02:40:15.467Z,100878.02
2019-02-24T02:40:54.730Z,100879.30
2019-02-24T02:41:31.653Z,100878.33
2019-02-24T02:42:14.256Z,100872.75
2019-02-24T02:43:04.188Z,100873.31
2019-02-24T02:43:41.214Z,100875.80
2019-02-24T02:44:20.797Z,100879.75
2019-02-24T02:44:57.383Z,100879.75
2019-02-24T02:45:41.477Z,100880.23
2019-02-24T02:46:21.064Z,100875.33
2019-02-24T02:46:57.531Z,100876.12
2019-02-24T02:47:34.718Z,100879.24
2019-02-24T02:48:11.127Z,100877.59
2019-02-24T02:48:47.474Z,100879.90
2019-02-24T02:49:30.876Z,100872.13
2019-02-24T02:50:10.306Z,100884.20
2019-02-24T02:50:46.635Z,100877.08
2019-02-24T02:51:31.602Z,100877.97
2019-02-24T02:52:08.229Z,100881.40
2019-02-24T02:52:45.347Z,100880.52
2019-02-24T02:53:45.953Z,100874.56
2019-02-24T02:54:24.627Z,100883.44
2019-02-24T02:55:02.611Z,100877.67
2019-02-24T02:55:42.725Z,100884.01
2019-02-24T02:56:20.310Z,100881.11
2019-02-24T02:56:57.887Z,100884.86
2019-02-24T02:57:34.095Z,100879.39
2019-02-24T02:58:10.519Z,100884.89
2019-02-24T02:58:54.387Z,100886.16
2019-02-24T02:59:26.729Z,100882.45
2019-02-24T03:00:05.747Z,100884.11
2019-02-24T03:00:42.099Z,100888.70
2019-02-24T03:01:21.244Z,100882.13
2019-02-24T03:01:58.741Z,100885.22
2019-02-24T03:02:36.310Z,100882.88
2019-02-24T03:03:12.624Z,100881.33
2019-02-24T03:03:50.349Z,100877.28
2019-02-24T03:04:27.451Z,100882.61
2019-02-24T03:05:03.893Z,100876.50
2019-02-24T03:05:51.648Z,100877.39
2019-02-24T03:06:56.570Z,100878.09
2019-02-24T03:07:44.002Z,100875.13
2019-02-24T03:08:22.028Z,100878.42
2019-02-24T03:08:58.257Z,100881.62
2019-02-24T03:09:36.840Z,100877.39
2019-02-24T03:10:13.250Z,100878.91
2019-02-24T03:10:53.608Z,100881.88
2019-02-24T03:11:29.852Z,100873.37
2019-02-24T03:12:06.409Z,100878.75
2019-02-24T03:12:42.759Z,100879.92
2019-02-24T03:13:18.910Z,100883.92
2019-02-24T03:13:55.309Z,100876.30
2019-02-24T03:14:31.907Z,100882.23
2019-02-24T03:15:09.853Z,100881.52
2019-02-24T03:15:46.397Z,100879.50
2019-02-24T03:16:31.420Z,100877.91
2019-02-24T03:17:08.545Z,100880.86
2019-02-24T03:17:45.475Z,100879.77
2019-02-24T03:18:24.704Z,100885.49
2019-02-24T03:19:01.317Z,100887.72
2019-02-24T03:19:37.615Z,100886.12
2019-02-24T03:20:13.875Z,100886.35
2019-02-24T03:20:50.252Z,100885.49
2019-02-24T03:21:26.682Z,100884.59
2019-02-24T03:22:03.152Z,100887.13
2019-02-24T03:22:40.712Z,100887.83
2019-02-24T03:23:18.282Z,100883.97
2019-02-24T03:23:55.988Z,100886.70
2019-02-24T03:24:32.398Z,100889.42
2019-02-24T03:25:08.556Z,100895.25
2019-02-24T03:25:44.945Z,100885.38
2019-02-24T03:26:22.679Z,100894.02
2019-02-24T03:26:59.191Z,100889.80
2019-02-24T03:27:39.209Z,100886.27
2019-02-24T03:28:17.585Z,100895.25
2019-02-24T03:29:03.875Z,100890.83
2019-02-24T03:29:35.094Z,100896.51
2019-02-24T03:30:12.057Z,100895.61
2019-02-24T03:30:51.862Z,100886.30
2019-02-24T03:31:28.192Z,100888.80
2019-02-24T03:32:04.665Z,100891.29
2019-02-24T03:32:40.987Z,100894.98
2019-02-24T03:33:18.038Z,100891.29
2019-02-24T03:33:56.595Z,100898.34
2019-02-24T03:34:33.886Z,100896.08
2019-02-24T03:35:11.525Z,100900.90
2019-02-24T03:35:49.039Z,100895.21
2019-02-24T03:36:25.767Z,100898.41
2019-02-24T03:37:01.936Z,100897.38
2019-02-24T03:37:38.268Z,100894.31
2019-02-24T03:38:14.697Z,100898.41
2019-02-24T03:38:51.371Z,100901.70
2019-02-24T03:39:29.334Z,100898.41
2019-02-24T03:40:05.815Z,100892.48
2019-02-24T03:40:42.009Z,100899.64
2019-02-24T03:41:21.658Z,100893.28
2019-02-24T03:41:58.811Z,100894.48
2019-02-24T03:42:35.150Z,100891.48
2019-02-24T03:43:12.017Z,100892.38
2019-02-24T03:43:48.727Z,100891.48
2019-02-24T03:44:24.874Z,100891.95
2019-02-24T03:45:01.213Z,100889.42
2019-02-24T03:45:40.278Z,100897.41
2019-02-24T03:46:16.446Z,100889.23
2019-02-24T03:46:52.744Z,100886.53
2019-02-24T03:47:29.259Z,100884.07
2019-02-24T03:48:06.179Z,100891.75
2019-02-24T03:48:43.009Z,100888.95
2019-02-24T03:49:19.937Z,100886.13
2019-02-24T03:49:57.206Z,100883.64
2019-02-24T03:50:33.744Z,100882.51
2019-02-24T03:51:10.329Z,100875.95
2019-02-24T03:51:49.731Z,100871.36
2019-02-24T03:52:27.137Z,100874.33
2019-02-24T03:53:03.526Z,100873.45
2019-02-24T03:53:41.199Z,100878.25
2019-02-24T03:54:17.771Z,100873.02
2019-02-24T03:54:55.321Z,100876.88
2019-02-24T03:55:31.886Z,100875.05
2019-02-24T03:56:09.714Z,100875.95
2019-02-24T03:56:48.739Z,100876.82
2019-02-24T03:57:25.223Z,100871.13
2019-02-24T03:58:01.727Z,100873.47
2019-02-24T03:58:38.052Z,100865.78
2019-02-24T03:59:23.694Z,100870.44
2019-02-24T04:00:00.767Z,100863.45
2019-02-24T04:00:37.412Z,100866.61
2019-02-24T04:01:14.480Z,100867.14
2019-02-24T04:01:50.848Z,100868.84
2019-02-24T04:02:27.674Z,100862.02
2019-02-24T04:03:03.932Z,100859.86
2019-02-24T04:03:43.576Z,100859.39
2019-02-24T04:04:24.344Z,100860.63
2019-02-24T04:05:01.165Z,100859.95
2019-02-24T04:05:38.025Z,100855.20
2019-02-24T04:06:14.349Z,100856.94
2019-02-24T04:06:51.446Z,100854.67
2019-02-24T04:07:29.613Z,100855.14
2019-02-24T04:08:06.756Z,100858.56
2019-02-24T04:08:42.968Z,100851.41
2019-02-24T04:09:19.947Z,100846.98
2019-02-24T04:09:56.292Z,100845.39
2019-02-24T04:10:32.652Z,100842.83
2019-02-24T04:11:12.111Z,100838.88
2019-02-24T04:11:49.087Z,100844.81
2019-02-24T04:12:27.571Z,100839.59
2019-02-24T04:13:03.848Z,100840.29
2019-02-24T04:13:40.478Z,100842.81
2019-02-24T04:14:19.114Z,100841.58
2019-02-24T04:14:55.358Z,100838.77
2019-02-24T04:15:31.907Z,100833.78
2019-02-24T04:16:08.824Z,100835.61
2019-02-24T04:16:46.235Z,100835.27
2019-02-24T04:17:23.173Z,100830.84
2019-02-24T04:17:59.494Z,100832.10
2019-02-24T04:18:35.824Z,100831.77
2019-02-24T04:19:13.468Z,100831.66
2019-02-24T04:19:49.662Z,100833.25
2019-02-24T04:20:25.949Z,100829.73
2019-02-24T04:21:02.255Z,100830.19
2019-02-24T04:21:44.387Z,100826.20
2019-02-24T04:22:20.525Z,100824.27
2019-02-24T04:22:57.562Z,100823.81
2019-02-24T04:23:35.512Z,100825.28
2019-02-24T04:24:12.086Z,100822.42
2019-02-24T04:24:53.261Z,100824.13
2019-02-24T04:25:30.083Z,100825.36
2019-02-24T04:26:25.435Z,100823.90
2019-02-24T04:27:03.181Z,100825.83
2019-02-24T04:27:40.223Z,100824.46
2019-02-24T04:28:16.850Z,100821.52
2019-02-24T04:28:53.433Z,100824.92
2019-02-24T04:29:30.625Z,100818.80
2019-02-24T04:30:06.933Z,100825.39
2019-02-24T04:30:43.212Z,100826.29
2019-02-24T04:31:20.445Z,100822.20
2019-02-24T04:31:58.271Z,100823.45
2019-02-24T04:32:34.627Z,100817.43
2019-02-24T04:33:11.386Z,100815.73
2019-02-24T04:33:47.717Z,100814.94
2019-02-24T04:34:23.945Z,100813.23
2019-02-24T04:35:00.664Z,100817.22
2019-02-24T04:35:38.258Z,100817.09
2019-02-24T04:36:14.444Z,100815.16
2019-02-24T04:36:53.741Z,100813.23
2019-02-24T04:37:30.104Z,100816.53
2019-02-24T04:38:07.006Z,100816.63
2019-02-24T04:38:45.075Z,100815.63
2019-02-24T04:39:21.337Z,100821.08
2019-02-24T04:39:59.517Z,100816.55
2019-02-24T04:40:36.740Z,100818.38
2019-02-24T04:41:13.513Z,100813.81
2019-02-24T04:41:49.793Z,100811.78
2019-02-24T04:42:27.110Z,100821.22
2019-02-24T04:43:04.005Z,100816.59
2019-02-24T04:43:40.136Z,100813.86
2019-02-24T04:44:16.598Z,100813.13
2019-02-24T04:44:52.899Z,100807.90
2019-02-24T04:45:29.192Z,100807.55
2019-02-24T04:46:05.681Z,100812.41
2019-02-24T04:46:42.502Z,100809.25
2019-02-24T04:47:19.623Z,100810.27
2019-02-24T04:48:01.297Z,100804.02
2019-02-24T04:48:38.827Z,100806.06
2019-02-24T04:49:15.097Z,100802.30
2019-02-24T04:49:52.890Z,100795.60
2019-02-24T04:50:34.248Z,100801.98
2019-02-24T04:51:11.197Z,100800.05
2019-02-24T04:51:48.580Z,100797.91
2019-02-24T04:52:28.066Z,100787.89
2019-02-24T04:53:05.131Z,100786.65
2019-02-24T04:53:42.535Z,100790.98
2019-02-24T04:54:19.146Z,100789.53
2019-02-24T04:54:55.426Z,100790.17
2019-02-24T04:55:31.709Z,100788.63
2019-02-24T04:56:07.921Z,100782.60
2019-02-24T04:56:44.264Z,100786.58
2019-02-24T04:57:20.725Z,100781.00
2019-02-24T04:57:57.096Z,100782.27
2019-02-24T04:58:33.404Z,100776.92
2019-02-24T04:59:09.747Z,100782.76
2019-02-24T04:59:46.082Z,100777.77
2019-02-24T05:00:22.405Z,100774.69
2019-02-24T05:01:00.074Z,100777.08
2019-02-24T05:01:36.330Z,100770.48
2019-02-24T05:02:13.485Z,100769.83
2019-02-24T05:02:49.816Z,100778.03
2019-02-24T05:03:26.298Z,100774.84
2019-02-24T05:04:02.553Z,100776.89
2019-02-24T05:04:40.238Z,100774.16
2019-02-24T05:05:16.588Z,100767.91
2019-02-24T05:05:54.000Z,100774.05
2019-02-24T05:06:30.205Z,100769.39
2019-02-24T05:07:06.426Z,100761.65
2019-02-24T05:07:42.799Z,100767.80
2019-02-24T05:08:19.037Z,100775.30
2019-02-24T05:08:55.394Z,100768.93
2019-02-24T05:09:31.801Z,100759.60
2019-02-24T05:10:08.704Z,100764.16
2019-02-24T05:10:45.154Z,100760.73
2019-02-24T05:11:21.927Z,100760.62
2019-02-24T05:12:00.413Z,100761.08
2019-02-24T05:12:36.533Z,100758.01
2019-02-24T05:13:14.072Z,100760.06
2019-02-24T05:13:50.510Z,100760.40
2019-02-24T05:14:27.005Z,100753.48
2019-02-24T05:15:03.424Z,100749.50
2019-02-24T05:15:39.850Z,100748.70
2019-02-24T05:16:16.436Z,100743.02
2019-02-24T05:16:52.747Z,100747.81
2019-02-24T05:17:29.313Z,100745.09
2019-02-24T05:18:07.202Z,100748.50
2019-02-24T05:18:43.588Z,100742.47
2019-02-24T05:19:19.961Z,100744.05
2019-02-24T05:19:59.537Z,100743.27
2019-02-24T05:20:36.220Z,100743.27
2019-02-24T05:21:12.481Z,100744.61
2019-02-24T05:21:48.901Z,100748.25
2019-02-24T05:22:25.155Z,100739.13
2019-02-24T05:23:01.504Z,100741.52
2019-02-24T05:23:37.821Z,100737.42
2019-02-24T05:24:14.150Z,100737.98
2019-02-24T05:24:51.214Z,100731.16
2019-02-24T05:25:27.348Z,100727.63
2019-02-24T05:26:03.672Z,100737.98
2019-02-24T05:26:39.894Z,100727.29
2019-02-24T05:27:16.946Z,100725.47
2019-02-24T05:27:54.283Z,100729.11
2019-02-24T05:28:33.378Z,100728.20
2019-02-24T05:29:10.483Z,100722.73
2019-02-24T05:29:47.514Z,100723.88
2019-02-24T05:30:24.625Z,100721.94
2019-02-24T05:31:05.612Z,100727.63
2019-02-24T05:31:44.078Z,100717.73
2019-02-24T05:32:20.946Z,100718.41
2019-02-24T05:32:57.594Z,100714.55
2019-02-24T05:33:34.559Z,100716.96
2019-02-24T05:34:12.542Z,100709.56
2019-02-24T05:34:49.195Z,100709.79
2019-02-24T05:35:29.755Z,100706.47
2019-02-24T05:36:11.569Z,100705.67
2019-02-24T05:36:48.375Z,100698.39
2019-02-24T05:37:25.231Z,100702.72
2019-02-24T05:38:02.229Z,100696.91
2019-02-24T05:38:39.601Z,100698.16
2019-02-24T05:39:17.706Z,100695.91
2019-02-24T05:39:55.729Z,100701.59
2019-02-24T05:40:33.444Z,100691.70
2019-02-24T05:41:09.804Z,100694.77
2019-02-24T05:41:47.681Z,100694.77
2019-02-24T05:42:27.731Z,100693.18
2019-02-24T05:43:04.084Z,100699.09
2019-02-24T05:43:40.962Z,100692.48
2019-02-24T05:44:17.740Z,100688.83
2019-02-24T05:45:00.382Z,100691.47
2019-02-24T05:45:38.024Z,100690.10
2019-02-24T05:46:15.929Z,100691.01
2019-02-24T05:46:55.776Z,100690.44
2019-02-24T05:47:38.496Z,100690.23
2019-02-24T05:48:15.843Z,100688.52
2019-02-24T05:48:54.008Z,100682.03
2019-02-24T05:49:30.370Z,100688.39
2019-02-24T05:50:07.761Z,100681.33
2019-02-24T05:50:44.076Z,100678.59
2019-02-24T05:51:20.573Z,100680.20
2019-02-24T05:52:14.151Z,100679.63
2019-02-24T05:52:50.403Z,100674.52
2019-02-24T05:53:27.352Z,100672.70
2019-02-24T05:54:03.632Z,100671.98
2019-02-24T05:54:42.777Z,100664.02
2019-02-24T05:55:22.729Z,100660.50
2019-02-24T05:55:59.882Z,100665.39
2019-02-24T05:56:36.970Z,100665.39
2019-02-24T05:57:13.198Z,100664.50
2019-02-24T05:57:49.650Z,100664.73
2019-02-24T05:58:26.358Z,100662.45
2019-02-24T05:59:03.333Z,100658.01
2019-02-24T05:59:39.920Z,100662.21
2019-02-24T06:00:17.142Z,100660.17
2019-02-24T06:00:53.545Z,100653.79
2019-02-24T06:01:29.937Z,100658.34
2019-02-24T06:02:07.398Z,100654.48
2019-02-24T06:02:52.853Z,100653.80
2019-02-24T06:03:28.998Z,100648.34
2019-02-24T06:04:07.495Z,100647.75
2019-02-24T06:04:43.685Z,100642.30
2019-02-24T06:05:20.757Z,100643.09
2019-02-24T06:06:00.669Z,100637.41
2019-02-24T06:06:42.321Z,100638.09
2019-02-24T06:07:19.283Z,100635.58
2019-02-24T06:07:56.403Z,100634.45
2019-02-24T06:08:35.882Z,100635.69
2019-02-24T06:09:15.563Z,100638.30
2019-02-24T06:09:52.335Z,100634.10
2019-02-24T06:10:29.307Z,100632.62
2019-02-24T06:11:06.373Z,100628.98
2019-02-24T06:11:42.584Z,100627.27
2019-02-24T06:12:18.822Z,100625.11
2019-02-24T06:12:55.086Z,100626.48
2019-02-24T06:13:31.357Z,100632.16
2019-02-24T06:14:13.050Z,100621.02
2019-02-24T06:15:10.956Z,100621.38
2019-02-24T06:15:47.148Z,100630.36
2019-02-24T06:16:23.587Z,100620.80
2019-02-24T06:17:00.170Z,100625.35
2019-02-24T06:17:37.479Z,100623.53
2019-02-24T06:18:13.914Z,100616.25
2019-02-24T06:18:50.706Z,100615.11
2019-02-24T06:19:27.527Z,100617.82
2019-02-24T06:20:03.985Z,100616.02
2019-02-24T06:20:40.794Z,100614.66
2019-02-24T06:21:17.188Z,100609.30
2019-02-24T06:21:54.034Z,100611.34
2019-02-24T06:22:30.912Z,100606.92
2019-02-24T06:23:07.854Z,100604.85
2019-02-24T06:23:44.298Z,100604.75
2019-02-24T06:24:21.215Z,100602.94
2019-02-24T06:24:57.916Z,100601.67
2019-02-24T06:25:34.583Z,100599.39
2019-02-24T06:26:11.796Z,100603.37
2019-02-24T06:26:48.017Z,100600.53
2019-02-24T06:27:24.843Z,100606.79
2019-02-24T06:28:01.601Z,100603.95
2019-02-24T06:28:38.584Z,100601.45
2019-02-24T06:29:15.722Z,100597.25
2019-02-24T06:29:52.352Z,100596.80
2019-02-24T06:30:29.280Z,100595.09
2019-02-24T06:31:05.849Z,100597.11
2019-02-24T06:31:42.563Z,100589.61
2019-02-24T06:32:19.252Z,100591.45
2019-02-24T06:32:56.130Z,100588.27
2019-02-24T06:33:32.381Z,100586.90
2019-02-24T06:34:09.085Z,100586.67
2019-02-24T06:34:45.245Z,100587.13
2019-02-24T06:35:21.509Z,100583.25
2019-02-24T06:35:57.803Z,100585.30
2019-02-24T06:36:34.235Z,100582.44
2019-02-24T06:37:10.415Z,100581.44
2019-02-24T06:37:46.564Z,100580.97
2019-02-24T06:38:23.526Z,100582.55
2019-02-24T06:39:00.485Z,100581.19
2019-02-24T06:39:36.660Z,100577.31
2019-02-24T06:40:13.456Z,100574.59
2019-02-24T06:40:50.224Z,100581.86
2019-02-24T06:41:26.375Z,100574.94
2019-02-24T06:42:03.608Z,100575.50
2019-02-24T06:42:40.753Z,100576.75
2019-02-24T06:43:17.039Z,100570.28
2019-02-24T06:43:53.129Z,100575.49
2019-02-24T06:44:29.301Z,100574.27
2019-02-24T06:45:05.555Z,100573.02
2019-02-24T06:45:41.789Z,100572.54
2019-02-24T06:46:19.024Z,100572.09
2019-02-24T06:46:55.212Z,100569.36
2019-02-24T06:47:31.770Z,100564.12
2019-02-24T06:48:08.051Z,100567.77
2019-02-24T06:48:44.640Z,100568.79
2019-02-24T06:49:20.692Z,100567.99
2019-02-24T06:49:56.835Z,100564.34
2019-02-24T06:50:51.815Z,100565.71
2019-02-24T06:51:28.125Z,100563.20
2019-02-24T06:52:04.383Z,100561.84
2019-02-24T06:52:41.427Z,100562.54
2019-02-24T06:53:17.781Z,100561.40
2019-02-24T06:53:54.022Z,100554.80
2019-02-24T06:54:30.320Z,100565.38
2019-02-24T06:55:06.836Z,100557.88
2019-02-24T06:55:43.108Z,100555.94
2019-02-24T06:56:20.110Z,100561.16
2019-02-24T06:56:56.364Z,100552.73
2019-02-24T06:57:32.673Z,100553.66
2019-02-24T06:58:09.289Z,100543.52
2019-02-24T06:58:45.482Z,100548.44
2019-02-24T06:59:22.731Z,100543.42
2019-02-24T06:59:59.326Z,100545.81
2019-02-24T07:00:36.013Z,100545.69
2019-02-24T07:01:12.887Z,100549.44
2019-02-24T07:01:49.277Z,100546.13
2019-02-24T07:02:25.623Z,100545.22
2019-02-24T07:03:02.669Z,100547.95
2019-02-24T07:03:38.761Z,100549.79
2019-02-24T07:04:15.591Z,100541.02
2019-02-24T07:04:52.595Z,100537.50
2019-02-24T07:05:28.899Z,100536.58
2019-02-24T07:06:05.436Z,100532.48
2019-02-24T07:06:41.594Z,100528.83
2019-02-24T07:07:18.473Z,100535.87
2019-02-24T07:07:54.669Z,100527.34
2019-02-24T07:08:31.009Z,100520.51
2019-02-24T07:09:08.189Z,100520.95
2019-02-24T07:09:44.908Z,100524.73
2019-02-24T07:10:21.732Z,100522.31
2019-02-24T07:10:58.042Z,100519.49
2019-02-24T07:11:34.851Z,100521.97
2019-02-24T07:12:11.089Z,100515.23
2019-02-24T07:12:47.414Z,100521.94
2019-02-24T07:13:24.143Z,100519.42
2019-02-24T07:14:00.736Z,100518.28
2019-02-24T07:14:37.108Z,100515.99
2019-02-24T07:15:13.768Z,100514.19
2019-02-24T07:15:50.079Z,100514.22
2019-02-24T07:16:26.833Z,100510.91
2019-02-24T07:17:03.710Z,100507.20
2019-02-24T07:17:40.261Z,100506.84
2019-02-24T07:18:17.014Z,100507.52
2019-02-24T07:18:53.729Z,100508.05
2019-02-24T07:19:30.082Z,100509.64
2019-02-24T07:20:06.509Z,100514.41
2019-02-24T07:20:42.689Z,100504.58
2019-02-24T07:21:19.544Z,100503.91
2019-02-24T07:21:56.015Z,100508.45
2019-02-24T07:22:33.206Z,100504.58
2019-02-24T07:23:09.431Z,100508.45
2019-02-24T07:23:46.187Z,100512.77
2019-02-24T07:24:22.556Z,100509.34
2019-02-24T07:24:59.532Z,100506.25
2019-02-24T07:25:36.174Z,100503.88
2019-02-24T07:26:12.657Z,100506.03
2019-02-24T07:26:49.662Z,100506.16
2019-02-24T07:27:26.622Z,100507.75
2019-02-24T07:28:03.665Z,100510.05
2019-02-24T07:28:40.799Z,100504.00
2019-02-24T07:29:17.008Z,100502.42
2019-02-24T07:29:53.923Z,100498.23
2019-02-24T07:30:30.724Z,100504.17
2019-02-24T07:31:07.476Z,100497.60
2019-02-24T07:31:44.259Z,100498.78
2019-02-24T07:32:20.586Z,100499.23
2019-02-24T07:32:57.338Z,100501.38
2019-02-24T07:33:33.586Z,100495.57
2019-02-24T07:34:09.773Z,100491.70
2019-02-24T07:34:46.915Z,100498.17
2019-02-24T07:35:23.911Z,100489.19
2019-02-24T07:36:00.497Z,100492.14
2019-02-24T07:36:37.343Z,100491.22
2019-02-24T07:37:14.319Z,100491.09
2019-02-24T07:37:50.342Z,100488.13
2019-02-24T07:38:26.507Z,100480.98
2019-02-24T07:39:02.754Z,100485.88
2019-02-24T07:39:39.353Z,100482.92
2019-02-24T07:40:16.252Z,100478.83
2019-02-24T07:40:53.083Z,100479.40
2019-02-24T07:41:29.800Z,100477.24
2019-02-24T07:42:06.751Z,100476.67
2019-02-24T07:42:42.905Z,100475.08
2019-02-24T07:43:19.455Z,100475.43
2019-02-24T07:43:56.521Z,100474.28
2019-02-24T07:44:33.617Z,100473.05
2019-02-24T07:45:09.815Z,100470.64
2019-02-24T07:45:46.603Z,100465.75
2019-02-24T07:46:23.770Z,100465.75
2019-02-24T07:46:59.919Z,100460.28
2019-02-24T07:47:36.102Z,100467.11
2019-02-24T07:48:12.584Z,100467.02
2019-02-24T07:48:49.702Z,100465.30
2019-02-24T07:49:26.021Z,100464.37
2019-02-24T07:50:02.261Z,100458.56
2019-02-24T07:50:39.060Z,100460.37
2019-02-24T07:51:16.293Z,100462.75
2019-02-24T07:51:52.487Z,100460.45
2019-02-24T07:52:28.854Z,100453.63
2019-02-24T07:53:05.938Z,100449.97
2019-02-24T07:53:43.513Z,100453.50
2019-02-24T07:54:20.186Z,100448.13
2019-02-24T07:54:56.354Z,100452.22
2019-02-24T07:55:32.635Z,100449.92
2019-02-24T07:56:09.168Z,100447.42
2019-02-24T07:56:45.861Z,100450.63
2019-02-24T07:57:22.926Z,100449.12
2019-02-24T07:57:59.873Z,100450.71
2019-02-24T07:58:36.108Z,100446.04
2019-02-24T07:59:12.450Z,100446.04
2019-02-24T07:59:48.698Z,100442.16
2019-02-24T08:00:31.990Z,100443.08
2019-02-24T08:01:03.072Z,100439.34
2019-02-24T08:01:39.149Z,100441.06
2019-02-24T08:02:16.386Z,100442.56
2019-02-24T08:02:52.903Z,100436.53
2019-02-24T08:03:29.698Z,100436.53
2019-02-24T08:04:08.072Z,100434.15
2019-02-24T08:04:44.501Z,100431.99
2019-02-24T08:05:20.774Z,100434.59
2019-02-24T08:05:57.248Z,100435.16
2019-02-24T08:06:33.724Z,100433.09
2019-02-24T08:07:10.395Z,100441.73
2019-02-24T08:07:47.399Z,100439.22
2019-02-24T08:08:23.487Z,100438.78
2019-02-24T08:08:59.590Z,100434.68
2019-02-24T08:09:35.734Z,100428.77
2019-02-24T08:10:11.938Z,100430.14
2019-02-24T08:10:48.802Z,100431.06
2019-02-24T08:11:25.652Z,100432.43
2019-02-24T08:12:01.711Z,100424.02
2019-02-24T08:12:38.670Z,100427.76
2019-02-24T08:13:14.958Z,100426.97
2019-02-24T08:13:51.076Z,100425.03
2019-02-24T08:14:27.370Z,100424.45
2019-02-24T08:15:04.307Z,100428.33
2019-02-24T08:15:40.479Z,100428.55
2019-02-24T08:16:16.727Z,100426.39
2019-02-24T08:16:53.292Z,100421.28
2019-02-24T08:17:30.187Z,100422.20
2019-02-24T08:18:06.572Z,100423.80
2019-02-24T08:18:49.244Z,100416.52
2019-02-24T08:19:20.980Z,100421.77
2019-02-24T08:19:57.408Z,100420.18
2019-02-24T08:20:33.574Z,100422.91
2019-02-24T08:21:10.249Z,100418.38
2019-02-24T08:21:47.052Z,100419.52
2019-02-24T08:22:23.685Z,100414.84
2019-02-24T08:23:00.063Z,100418.38
2019-02-24T08:23:36.345Z,100409.73
2019-02-24T08:24:13.361Z,100409.87
2019-02-24T08:24:49.850Z,100416.25
2019-02-24T08:25:26.091Z,100417.50
2019-02-24T08:26:02.383Z,100410.58
2019-02-24T08:26:39.348Z,100409.34
2019-02-24T08:27:15.813Z,100410.48
2019-02-24T08:27:54.917Z,100407.53
2019-02-24T08:28:30.521Z,100406.05
2019-02-24T08:29:07.830Z,100405.48
2019-02-24T08:29:44.802Z,100411.52
2019-02-24T08:30:21.745Z,100402.17
2019-02-24T08:30:58.566Z,100408.12
2019-02-24T08:31:34.738Z,100406.97
2019-02-24T08:32:11.015Z,100413.36
2019-02-24T08:32:47.295Z,100405.25
2019-02-24T08:33:23.678Z,100403.45
2019-02-24T08:33:59.914Z,100400.02
2019-02-24T08:34:36.317Z,100400.72
2019-02-24T08:35:12.908Z,100404.91
2019-02-24T08:35:49.331Z,100407.06
2019-02-24T08:36:25.513Z,100398.56
2019-02-24T08:37:02.437Z,100408.47
2019-02-24T08:37:39.540Z,100405.30
2019-02-24T08:38:15.825Z,100402.34
2019-02-24T08:38:52.965Z,100405.33
2019-02-24T08:39:30.070Z,100400.80
2019-02-24T08:40:06.335Z,100409.80
2019-02-24T08:40:42.798Z,100404.70
2019-02-24T08:41:19.810Z,100403.33
2019-02-24T08:41:56.842Z,100403.55
2019-02-24T08:42:33.758Z,100398.00
2019-02-24T08:43:10.575Z,100402.66
2019-02-24T08:43:46.857Z,100399.94
2019-02-24T08:44:22.967Z,100395.39
2019-02-24T08:44:59.288Z,100398.80
2019-02-24T08:45:36.450Z,100396.53
2019-02-24T08:46:12.939Z,100390.41